createdAt,value
2019-04-16T00:00:48.152Z,11.48
2019-04-16T00:03:20.243Z,12.20
2019-04-16T00:05:59.832Z,11.22
2019-04-16T00:08:31.462Z,11.75
2019-04-16T00:11:02.635Z,11.97
2019-04-16T00:13:33.840Z,10.95
2019-04-16T00:16:05.403Z,12.28
2019-04-16T00:21:10.014Z,11.60
2019-04-16T00:23:57.596Z,11.12
2019-04-16T00:26:27.591Z,11.93
2019-04-16T00:29:01.669Z,12.20
2019-04-16T00:31:28.515Z,12.07
2019-04-16T00:33:58.087Z,12.05
2019-04-16T00:36:27.687Z,11.90
2019-04-16T00:38:57.285Z,12.10
2019-04-16T00:41:26.806Z,11.45
2019-04-16T00:43:56.503Z,11.85
2019-04-16T00:46:26.123Z,13.03
2019-04-16T00:48:55.778Z,12.60
2019-04-16T00:51:25.324Z,12.23
2019-04-16T00:53:55.947Z,12.53
2019-04-16T00:56:25.563Z,11.68
2019-04-16T00:58:55.188Z,11.97
2019-04-16T01:01:24.736Z,13.30
2019-04-16T01:03:54.367Z,12.05
2019-04-16T01:06:23.899Z,11.18
2019-04-16T01:08:54.816Z,11.10
2019-04-16T01:11:24.766Z,11.48
2019-04-16T01:13:55.734Z,11.83
2019-04-16T01:16:26.859Z,12.00
2019-04-16T01:18:57.498Z,12.07
2019-04-16T01:21:27.044Z,12.35
2019-04-16T01:23:56.590Z,11.48
2019-04-16T01:26:26.855Z,12.45
2019-04-16T01:29:11.084Z,11.28
2019-04-16T01:31:47.945Z,11.65
2019-04-16T01:34:19.278Z,12.53
2019-04-16T01:37:06.983Z,11.73
2019-04-16T01:39:42.050Z,11.95
2019-04-16T01:42:13.194Z,12.45
2019-04-16T01:44:42.755Z,12.15
2019-04-16T01:47:12.400Z,12.18
2019-04-16T01:49:42.706Z,12.63
2019-04-16T01:52:12.430Z,12.68
2019-04-16T01:54:42.245Z,11.83
2019-04-16T01:57:11.801Z,11.78
2019-04-16T01:59:41.484Z,12.80
2019-04-16T02:02:14.621Z,11.95
2019-04-16T02:04:42.412Z,12.13
2019-04-16T02:07:13.109Z,11.90
2019-04-16T02:09:42.722Z,12.43
2019-04-16T02:12:13.227Z,11.60
2019-04-16T02:14:43.882Z,12.65
2019-04-16T02:17:13.432Z,11.93
2019-04-16T02:19:42.975Z,13.40
2019-04-16T02:22:13.987Z,13.45
2019-04-16T02:24:47.279Z,12.65
2019-04-16T02:27:15.980Z,13.18
2019-04-16T02:29:45.502Z,12.82
2019-04-16T02:32:15.068Z,12.73
2019-04-16T02:34:44.596Z,13.50
2019-04-16T02:37:14.171Z,12.40
2019-04-16T02:39:48.799Z,12.18
2019-04-16T02:42:14.943Z,11.90
2019-04-16T02:44:48.657Z,11.65
2019-04-16T02:47:15.786Z,12.23
2019-04-16T02:49:46.617Z,11.50
2019-04-16T02:52:34.217Z,10.68
2019-04-16T02:55:10.726Z,11.35
2019-04-16T02:58:01.228Z,11.63
2019-04-16T03:00:41.629Z,11.50
2019-04-16T03:03:12.852Z,10.95
2019-04-16T03:05:44.169Z,11.08
2019-04-16T03:08:13.866Z,12.40
2019-04-16T03:10:44.771Z,13.75
2019-04-16T03:13:14.987Z,12.63
2019-04-16T03:15:55.307Z,13.53
2019-04-16T03:18:26.559Z,14.18
2019-04-16T03:20:56.642Z,13.00
2019-04-16T03:25:54.917Z,12.35
2019-04-16T03:28:27.401Z,14.03
2019-04-16T03:30:56.287Z,12.00
2019-04-16T03:33:25.817Z,12.90
2019-04-16T03:35:57.960Z,12.45
2019-04-16T03:38:26.670Z,13.53
2019-04-16T03:40:56.731Z,13.70
2019-04-16T03:45:55.024Z,13.03
2019-04-16T03:48:24.630Z,13.80
2019-04-16T03:50:54.196Z,13.22
2019-04-16T03:53:23.768Z,13.55
2019-04-16T03:55:54.626Z,13.13
2019-04-16T03:58:24.467Z,14.07
2019-04-16T04:00:54.088Z,13.85
2019-04-16T04:03:26.242Z,14.47
2019-04-16T04:05:57.993Z,12.88
2019-04-16T04:08:27.530Z,13.38
2019-04-16T04:10:57.182Z,13.62
2019-04-16T04:13:26.732Z,12.35
2019-04-16T04:15:58.511Z,12.70
2019-04-16T04:18:27.968Z,13.98
2019-04-16T04:20:57.604Z,12.73
2019-04-16T04:23:28.610Z,13.62
2019-04-16T04:25:58.323Z,13.28
2019-04-16T04:28:27.875Z,13.45
2019-04-16T04:30:57.767Z,14.55
2019-04-16T04:33:40.394Z,14.47
2019-04-16T04:36:08.031Z,13.32
2019-04-16T04:38:38.624Z,12.70
2019-04-16T04:41:08.356Z,13.75
2019-04-16T04:43:38.069Z,13.75
2019-04-16T04:46:13.005Z,12.63
2019-04-16T04:48:39.061Z,14.60
2019-04-16T04:51:09.064Z,12.60
2019-04-16T04:53:38.790Z,12.78
2019-04-16T04:56:08.478Z,13.62
2019-04-16T04:58:38.050Z,14.15
2019-04-16T05:01:09.594Z,13.48
2019-04-16T05:03:49.011Z,14.03
2019-04-16T05:06:20.469Z,14.38
2019-04-16T05:08:50.220Z,13.50
2019-04-16T05:11:19.781Z,13.53
2019-04-16T05:13:49.420Z,13.10
2019-04-16T05:16:19.534Z,12.28
2019-04-16T05:18:49.170Z,13.30
2019-04-16T05:21:19.519Z,14.60
2019-04-16T05:23:49.302Z,14.18
2019-04-16T05:26:18.843Z,13.75
2019-04-16T05:28:48.387Z,12.00
2019-04-16T05:31:17.936Z,13.83
2019-04-16T05:33:47.500Z,13.62
2019-04-16T05:36:17.138Z,14.43
2019-04-16T05:38:46.764Z,13.78
2019-04-16T05:41:20.505Z,13.03
2019-04-16T05:43:47.456Z,13.68
2019-04-16T05:46:17.054Z,13.68
2019-04-16T05:48:46.598Z,12.78
2019-04-16T05:51:16.160Z,14.30
2019-04-16T05:53:47.363Z,13.93
2019-04-16T05:56:24.067Z,14.50
2019-04-16T05:58:52.447Z,14.90
2019-04-16T06:01:42.373Z,9.08
2019-04-16T06:04:11.197Z,13.40
2019-04-16T06:06:40.834Z,13.22
2019-04-16T06:09:12.207Z,12.23
2019-04-16T06:11:42.672Z,12.93
2019-04-16T06:14:17.912Z,12.95
2019-04-16T06:16:46.770Z,12.95
2019-04-16T06:19:26.896Z,13.20
2019-04-16T06:24:46.176Z,13.50
2019-04-16T06:27:24.476Z,14.15
2019-04-16T06:30:07.627Z,14.10
2019-04-16T06:32:53.876Z,14.60
2019-04-16T06:35:43.978Z,14.95
2019-04-16T06:38:19.184Z,15.75
2019-04-16T06:40:53.076Z,13.83
2019-04-16T06:43:26.290Z,14.38
2019-04-16T06:46:09.585Z,14.95
2019-04-16T06:48:45.932Z,14.70
2019-04-16T06:51:32.229Z,15.20
2019-04-16T06:54:19.611Z,16.07
2019-04-16T06:56:59.652Z,16.65
2019-04-16T07:02:04.025Z,17.17
2019-04-16T07:04:51.718Z,16.45
2019-04-16T07:07:22.922Z,16.67
2019-04-16T07:09:56.801Z,15.78
2019-04-16T07:12:25.740Z,19.55
2019-04-16T07:14:55.515Z,16.10
2019-04-16T07:17:25.061Z,18.07
2019-04-16T07:19:54.676Z,16.10
2019-04-16T07:22:24.314Z,15.20
2019-04-16T07:24:56.582Z,15.35
2019-04-16T07:27:28.815Z,15.85
2019-04-16T07:30:04.881Z,15.55
2019-04-16T07:32:36.886Z,15.18
2019-04-16T07:35:09.011Z,14.80
2019-04-16T07:37:45.900Z,16.00
2019-04-16T07:40:26.040Z,14.93
2019-04-16T07:42:59.930Z,15.55
2019-04-16T07:45:31.202Z,14.78
2019-04-16T07:48:07.000Z,15.43
2019-04-16T07:50:56.532Z,15.72
2019-04-16T07:53:39.835Z,14.60
2019-04-16T07:56:13.751Z,15.23
2019-04-16T07:58:43.283Z,15.40
2019-04-16T08:01:16.262Z,15.63
2019-04-16T08:03:44.306Z,14.43
2019-04-16T08:06:14.541Z,15.80
2019-04-16T08:08:44.304Z,16.75
2019-04-16T08:11:13.932Z,15.10
2019-04-16T08:13:44.323Z,14.50
2019-04-16T08:16:13.945Z,15.45
2019-04-16T08:18:50.790Z,15.83
2019-04-16T08:21:22.511Z,16.00
2019-04-16T08:23:53.444Z,15.93
2019-04-16T08:26:22.992Z,16.27
2019-04-16T08:28:52.543Z,16.07
2019-04-16T08:31:23.805Z,14.78
2019-04-16T08:33:53.435Z,16.73
2019-04-16T08:36:23.050Z,15.85
2019-04-16T08:38:52.676Z,16.30
2019-04-16T08:41:22.243Z,15.78
2019-04-16T08:43:51.876Z,15.60
2019-04-16T08:46:21.443Z,16.62
2019-04-16T08:48:54.105Z,16.48
2019-04-16T08:51:30.110Z,17.35
2019-04-16T08:53:53.597Z,16.40
2019-04-16T08:56:23.214Z,17.00
2019-04-16T08:58:56.344Z,16.80
2019-04-16T09:01:31.335Z,17.00
2019-04-16T09:04:02.696Z,17.92
2019-04-16T09:06:32.292Z,18.30
2019-04-16T09:09:12.394Z,16.50
2019-04-16T09:11:37.200Z,17.75
2019-04-16T09:14:08.108Z,18.25
2019-04-16T09:16:39.387Z,18.60
2019-04-16T09:19:16.481Z,18.85
2019-04-16T09:21:46.028Z,18.92
2019-04-16T09:24:32.072Z,18.12
2019-04-16T09:27:12.458Z,18.35
2019-04-16T09:29:58.674Z,18.32
2019-04-16T09:32:44.829Z,18.82
2019-04-16T09:35:19.887Z,19.57
2019-04-16T09:37:59.139Z,19.25
2019-04-16T09:40:49.226Z,19.37
2019-04-16T09:43:21.852Z,17.85
2019-04-16T09:45:51.564Z,17.98
2019-04-16T09:48:21.310Z,19.17
2019-04-16T09:50:50.986Z,18.02
2019-04-16T09:53:33.074Z,18.75
2019-04-16T09:55:51.846Z,18.30
2019-04-16T09:58:25.798Z,18.40
2019-04-16T10:01:03.154Z,18.73
2019-04-16T10:03:34.499Z,19.12
2019-04-16T10:06:05.688Z,18.65
2019-04-16T10:08:35.779Z,18.20
2019-04-16T10:11:06.268Z,17.57
2019-04-16T10:13:36.541Z,16.52
2019-04-16T10:18:35.976Z,15.07
2019-04-16T10:21:05.671Z,15.20
2019-04-16T10:23:42.607Z,16.10
2019-04-16T10:26:12.723Z,18.10
2019-04-16T10:28:44.142Z,16.30
2019-04-16T10:31:15.389Z,16.97
2019-04-16T10:33:45.018Z,15.00
2019-04-16T10:36:14.697Z,15.65
2019-04-16T10:38:57.918Z,15.68
2019-04-16T10:41:38.148Z,18.40
2019-04-16T10:44:15.475Z,17.80
2019-04-16T10:47:03.272Z,18.12
2019-04-16T10:49:40.207Z,18.52
2019-04-16T10:52:11.470Z,17.87
2019-04-16T10:54:45.717Z,18.10
2019-04-16T10:57:23.695Z,17.87
2019-04-16T10:59:57.580Z,18.05
2019-04-16T11:02:44.960Z,18.57
2019-04-16T11:05:20.243Z,18.27
2019-04-16T11:07:51.759Z,17.20
2019-04-16T11:10:21.297Z,18.07
2019-04-16T11:12:51.044Z,16.23
2019-04-16T11:15:22.570Z,16.93
2019-04-16T11:17:52.103Z,17.82
2019-04-16T11:20:21.754Z,16.62
2019-04-16T11:22:51.386Z,16.10
2019-04-16T11:25:21.017Z,16.05
2019-04-16T11:30:32.954Z,15.10
2019-04-16T11:33:03.114Z,15.60
2019-04-16T11:35:32.896Z,15.88
2019-04-16T11:38:03.742Z,15.68
2019-04-16T11:43:02.142Z,14.47
2019-04-16T11:45:31.808Z,14.98
2019-04-16T11:50:30.144Z,15.15
2019-04-16T11:55:28.506Z,15.40
2019-04-16T11:57:59.115Z,16.30
2019-04-16T12:00:31.620Z,16.80
2019-04-16T12:03:08.993Z,15.32
2019-04-16T12:05:56.737Z,15.72
2019-04-16T12:08:45.486Z,13.65
2019-04-16T12:11:25.379Z,14.75
2019-04-16T12:14:04.102Z,13.93
2019-04-16T12:16:37.968Z,16.70
2019-04-16T12:19:09.267Z,17.73
2019-04-16T12:21:46.194Z,18.37
2019-04-16T12:24:20.085Z,18.48
2019-04-16T12:27:00.155Z,17.15
2019-04-16T12:29:40.237Z,17.35
2019-04-16T12:32:26.637Z,17.87
2019-04-16T12:35:08.292Z,17.73
2019-04-16T12:37:55.957Z,17.42
2019-04-16T12:40:42.046Z,18.42
2019-04-16T12:43:14.676Z,17.95
2019-04-16T12:45:56.555Z,17.37
2019-04-16T12:48:30.683Z,17.42
2019-04-16T12:51:02.207Z,17.20
2019-04-16T12:53:36.159Z,16.82
2019-04-16T12:56:21.776Z,16.75
2019-04-16T12:58:53.111Z,19.27
2019-04-16T13:01:39.257Z,17.05
2019-04-16T13:04:19.399Z,15.38
2019-04-16T13:06:53.119Z,17.23
2019-04-16T13:09:24.368Z,19.42
2019-04-16T13:12:01.156Z,18.00
2019-04-16T13:14:59.887Z,18.30
2019-04-16T13:17:21.401Z,16.25
2019-04-16T13:19:55.425Z,17.77
2019-04-16T13:22:26.632Z,17.35
2019-04-16T13:25:03.619Z,16.55
2019-04-16T13:27:34.886Z,12.90
2019-04-16T13:30:07.339Z,13.28
2019-04-16T13:32:36.921Z,14.23
2019-04-16T13:37:37.802Z,11.95
2019-04-16T13:40:09.511Z,11.53
2019-04-16T13:42:39.108Z,12.03
2019-04-16T13:47:55.627Z,12.20
2019-04-16T13:50:27.445Z,12.75
2019-04-16T13:52:58.815Z,13.30
2019-04-16T13:55:38.245Z,14.18
2019-04-16T13:58:08.591Z,13.83
2019-04-16T14:00:42.551Z,12.63
2019-04-16T14:03:16.431Z,11.83
2019-04-16T14:05:47.182Z,13.58
2019-04-16T14:08:16.894Z,13.28
2019-04-16T14:10:47.338Z,13.05
2019-04-16T14:13:18.504Z,12.37
2019-04-16T14:15:48.114Z,12.58
2019-04-16T14:18:17.663Z,12.00
2019-04-16T14:20:47.291Z,12.75
2019-04-16T14:23:16.862Z,13.05
2019-04-16T14:25:46.478Z,13.10
2019-04-16T14:28:18.019Z,14.93
2019-04-16T14:30:49.125Z,15.70
2019-04-16T14:33:20.447Z,17.40
2019-04-16T14:35:49.999Z,15.43
2019-04-16T14:40:50.010Z,14.83
2019-04-16T14:43:21.255Z,13.83
2019-04-16T14:45:58.164Z,12.58
2019-04-16T14:48:23.432Z,15.85
2019-04-16T14:53:23.376Z,14.85
2019-04-16T14:56:00.503Z,15.98
2019-04-16T14:58:33.059Z,16.67
2019-04-16T15:01:06.900Z,16.27
2019-04-16T15:03:49.850Z,15.03
2019-04-16T15:06:29.912Z,17.05
2019-04-16T15:09:01.130Z,16.37
2019-04-16T15:11:50.381Z,16.80
2019-04-16T15:14:27.433Z,16.77
2019-04-16T15:17:01.225Z,15.70
2019-04-16T15:19:32.579Z,17.02
2019-04-16T15:22:18.915Z,15.53
2019-04-16T15:25:02.335Z,14.23
2019-04-16T15:27:36.230Z,15.80
2019-04-16T15:30:11.107Z,15.55
2019-04-16T15:32:42.370Z,15.40
2019-04-16T15:35:16.262Z,15.38
2019-04-16T15:37:50.178Z,17.07
2019-04-16T15:40:39.166Z,14.87
2019-04-16T15:43:25.552Z,16.23
2019-04-16T15:46:25.073Z,15.25
2019-04-16T15:48:44.799Z,15.65
2019-04-16T15:51:18.743Z,17.25
2019-04-16T15:53:50.531Z,15.95
2019-04-16T15:56:26.413Z,14.58
2019-04-16T15:59:06.511Z,16.50
2019-04-16T16:01:49.846Z,15.80
2019-04-16T16:04:36.220Z,15.98
2019-04-16T16:07:08.840Z,15.38
2019-04-16T16:09:41.072Z,15.90
2019-04-16T16:12:12.638Z,15.93
2019-04-16T16:14:42.267Z,14.80
2019-04-16T16:19:40.501Z,14.70
2019-04-16T16:24:42.278Z,14.93
2019-04-16T16:27:11.580Z,15.55
2019-04-16T16:32:09.840Z,15.72
2019-04-16T16:37:08.336Z,14.23
2019-04-16T16:39:38.034Z,13.32
2019-04-16T16:42:09.224Z,15.00
2019-04-16T16:47:15.428Z,14.30
2019-04-16T16:49:45.105Z,15.58
2019-04-16T16:55:03.270Z,14.50
2019-04-16T16:57:37.502Z,14.07
2019-04-16T17:00:25.198Z,14.90
2019-04-16T17:02:56.788Z,14.18
2019-04-16T17:05:28.144Z,14.23
2019-04-16T17:07:57.959Z,14.73
2019-04-16T17:10:27.727Z,14.98
2019-04-16T17:12:57.271Z,13.98
2019-04-16T17:15:26.980Z,14.58
2019-04-16T17:17:57.604Z,13.90
2019-04-16T17:20:27.227Z,14.38
2019-04-16T17:22:56.795Z,13.78
2019-04-16T17:25:36.113Z,15.45
2019-04-16T17:27:57.742Z,13.48
2019-04-16T17:30:27.742Z,15.00
2019-04-16T17:32:57.462Z,15.60
2019-04-16T17:35:27.112Z,16.52
2019-04-16T17:38:01.825Z,17.48
2019-04-16T17:40:29.499Z,16.32
2019-04-16T17:43:00.793Z,17.15
2019-04-16T17:45:43.979Z,17.12
2019-04-16T17:48:20.667Z,17.85
2019-04-16T17:51:02.852Z,18.42
2019-04-16T17:53:36.824Z,17.48
2019-04-16T17:56:24.271Z,18.48
2019-04-16T17:58:58.038Z,20.00
2019-04-16T18:01:45.124Z,19.55
2019-04-16T18:04:25.457Z,19.27
2019-04-16T18:07:02.484Z,19.77
2019-04-16T18:09:36.589Z,19.48
2019-04-16T18:12:28.890Z,18.32
2019-04-16T18:15:07.303Z,17.65
2019-04-16T18:17:46.847Z,16.73
2019-04-16T18:20:26.886Z,16.82
2019-04-16T18:23:13.242Z,16.12
2019-04-16T18:25:55.569Z,16.23
2019-04-16T18:28:22.726Z,15.70
2019-04-16T18:30:54.085Z,16.65
2019-04-16T18:33:28.407Z,16.60
2019-04-16T18:36:02.021Z,16.65
2019-04-16T18:38:47.447Z,16.90
2019-04-16T18:41:18.630Z,15.68
2019-04-16T18:44:09.156Z,17.12
2019-04-16T18:46:40.363Z,16.70
2019-04-16T18:49:14.267Z,15.93
2019-04-16T18:51:42.743Z,16.32
2019-04-16T18:54:15.030Z,15.45
2019-04-16T18:56:43.556Z,16.50
2019-04-16T18:59:13.366Z,15.83
2019-04-16T19:01:44.694Z,15.83
2019-04-16T19:04:14.398Z,15.50
2019-04-16T19:06:44.055Z,17.30
2019-04-16T19:09:13.663Z,16.48
2019-04-16T19:11:43.338Z,15.85
2019-04-16T19:14:13.879Z,17.10
2019-04-16T19:16:43.793Z,17.65
2019-04-16T19:19:14.475Z,17.02
2019-04-16T19:21:44.118Z,18.15
2019-04-16T19:24:13.808Z,18.00
2019-04-16T19:26:43.507Z,17.45
2019-04-16T19:29:14.551Z,17.10
2019-04-16T19:31:44.671Z,16.65
2019-04-16T19:34:14.281Z,17.30
2019-04-16T19:36:43.923Z,17.65
2019-04-16T19:39:15.327Z,18.17
2019-04-16T19:41:45.060Z,17.50
2019-04-16T19:44:14.729Z,18.55
2019-04-16T19:46:45.761Z,17.92
2019-04-16T19:49:16.809Z,17.67
2019-04-16T19:51:46.490Z,18.07
2019-04-16T19:54:16.040Z,17.20
2019-04-16T19:56:51.135Z,17.20
2019-04-16T19:59:17.250Z,16.35
2019-04-16T20:01:46.868Z,17.73
2019-04-16T20:04:16.649Z,16.37
2019-04-16T20:06:46.339Z,17.23
2019-04-16T20:09:16.031Z,17.10
2019-04-16T20:11:45.656Z,17.32
2019-04-16T20:14:15.282Z,16.95
2019-04-16T20:16:44.834Z,16.75
2019-04-16T20:19:14.392Z,16.87
2019-04-16T20:21:43.949Z,16.97
2019-04-16T20:24:13.599Z,17.07
2019-04-16T20:26:43.153Z,17.37
2019-04-16T20:29:12.778Z,18.60
2019-04-16T20:31:42.322Z,18.00
2019-04-16T20:34:12.536Z,17.92
2019-04-16T20:36:42.855Z,16.32
2019-04-16T20:39:12.498Z,18.42
2019-04-16T20:41:42.682Z,18.12
2019-04-16T20:44:12.389Z,17.00
2019-04-16T20:46:41.945Z,18.35
2019-04-16T20:49:16.558Z,17.73
2019-04-16T20:51:42.745Z,17.35
2019-04-16T20:54:13.906Z,18.00
2019-04-16T20:56:43.790Z,17.75
2019-04-16T20:59:13.505Z,17.77
2019-04-16T21:01:45.149Z,15.98
2019-04-16T21:04:14.587Z,17.27
2019-04-16T21:06:44.504Z,17.12
2019-04-16T21:09:14.188Z,18.05
2019-04-16T21:11:44.081Z,16.67
2019-04-16T21:14:13.800Z,17.65
2019-04-16T21:16:43.565Z,17.23
2019-04-16T21:19:22.779Z,17.80
2019-04-16T21:21:44.491Z,18.30
2019-04-16T21:24:14.112Z,17.42
2019-04-16T21:26:43.735Z,18.15
2019-04-16T21:29:23.778Z,19.45
2019-04-16T21:34:34.332Z,17.92
2019-04-16T21:37:09.006Z,17.60
2019-04-16T21:39:38.418Z,16.55
2019-04-16T21:42:08.103Z,16.80
2019-04-16T21:44:37.667Z,16.30
2019-04-16T21:47:07.562Z,17.30
2019-04-16T21:49:38.713Z,17.40
2019-04-16T21:52:08.567Z,16.75
2019-04-16T21:54:39.564Z,17.17
2019-04-16T21:57:13.357Z,17.23
2019-04-16T21:59:40.475Z,17.55
2019-04-16T22:02:29.764Z,17.32
2019-04-16T22:04:59.448Z,16.97
2019-04-16T22:07:29.103Z,16.73
2019-04-16T22:09:58.707Z,18.12
2019-04-16T22:12:28.268Z,15.50
2019-04-16T22:14:57.812Z,16.70
2019-04-16T22:17:27.443Z,17.02
2019-04-16T22:20:03.514Z,16.07
2019-04-16T22:22:29.447Z,18.62
2019-04-16T22:24:59.062Z,18.45
2019-04-16T22:27:28.617Z,18.73
2019-04-16T22:29:58.231Z,17.48
2019-04-16T22:32:30.890Z,17.82
2019-04-16T22:34:59.051Z,18.10
2019-04-16T22:37:28.599Z,17.57
2019-04-16T22:40:02.630Z,19.10
2019-04-16T22:42:48.847Z,19.40
2019-04-16T22:45:20.109Z,19.85
2019-04-16T22:47:51.308Z,19.95
2019-04-16T22:50:20.859Z,19.57
2019-04-16T22:52:50.493Z,19.12
2019-04-16T22:55:24.307Z,20.75
2019-04-16T22:57:52.527Z,19.23
2019-04-16T23:00:44.129Z,20.02
2019-04-16T23:03:10.224Z,19.52
2019-04-16T23:05:39.816Z,18.98
2019-04-16T23:08:12.805Z,19.02
2019-04-16T23:10:40.611Z,19.60
2019-04-16T23:13:10.154Z,19.60
2019-04-16T23:15:40.351Z,20.20
2019-04-16T23:18:09.897Z,18.23
2019-04-16T23:20:41.081Z,17.92
2019-04-16T23:23:10.622Z,17.60
2019-04-16T23:25:41.242Z,16.75
2019-04-16T23:28:11.757Z,17.85
2019-04-16T23:30:42.521Z,18.00
2019-04-16T23:33:12.089Z,18.98
2019-04-16T23:35:44.475Z,18.42
2019-04-16T23:38:12.962Z,19.45
2019-04-16T23:40:43.929Z,19.80
2019-04-16T23:43:24.091Z,18.42
2019-04-16T23:48:47.912Z,19.35
2019-04-16T23:51:22.415Z,19.30
2019-04-16T23:53:59.439Z,19.40
2019-04-16T23:56:30.615Z,19.55
2019-04-16T23:59:13.868Z,20.05
